createdAt,value
2023-01-08T00:00:51.646Z,94.24
2023-01-08T00:03:19.544Z,93.84
2023-01-08T00:05:47.202Z,93.48
2023-01-08T00:08:14.757Z,93.81
2023-01-08T00:10:42.372Z,94.15
2023-01-08T00:13:10.073Z,92.95
2023-01-08T00:15:38.987Z,93.52
2023-01-08T00:18:06.996Z,93.37
2023-01-08T00:20:34.530Z,92.98
2023-01-08T00:23:02.070Z,92.77
2023-01-08T00:25:29.589Z,93.69
2023-01-08T00:27:57.109Z,93.79
2023-01-08T00:30:24.656Z,93.12
2023-01-08T00:32:54.160Z,93.29
2023-01-08T00:35:21.742Z,93.65
2023-01-08T00:37:50.216Z,94.18
2023-01-08T00:40:18.062Z,93.37
2023-01-08T00:42:45.697Z,93.66
2023-01-08T00:45:13.241Z,93.32
2023-01-08T00:47:40.832Z,94.21
2023-01-08T00:50:10.829Z,93.57
2023-01-08T00:52:38.646Z,93.76
2023-01-08T00:55:07.386Z,94.32
2023-01-08T00:57:35.314Z,94.28
2023-01-08T01:00:02.909Z,93.69
2023-01-08T01:02:30.513Z,94.55
2023-01-08T01:04:58.009Z,94.14
2023-01-08T01:07:26.932Z,95.02
2023-01-08T01:09:54.463Z,94.36
2023-01-08T01:12:22.115Z,94.65
2023-01-08T01:14:49.732Z,94.52
2023-01-08T01:17:17.510Z,94.51
2023-01-08T01:19:45.334Z,94.81
2023-01-08T01:22:13.080Z,95.63
2023-01-08T01:24:42.135Z,95.31
2023-01-08T01:27:09.967Z,95.19
2023-01-08T01:29:37.757Z,94.99
2023-01-08T01:32:06.147Z,94.86
2023-01-08T01:34:33.777Z,95.62
2023-01-08T01:37:01.362Z,94.80
2023-01-08T01:39:29.070Z,95.30
2023-01-08T01:41:58.057Z,95.47
2023-01-08T01:44:38.650Z,94.86
2023-01-08T01:47:12.468Z,95.70
2023-01-08T01:49:41.457Z,94.97
2023-01-08T01:52:10.067Z,95.81
2023-01-08T01:54:38.177Z,96.09
2023-01-08T01:57:08.765Z,95.74
2023-01-08T01:59:36.309Z,95.21
2023-01-08T02:02:03.954Z,95.99
2023-01-08T02:04:31.616Z,95.69
2023-01-08T02:07:02.949Z,95.51
2023-01-08T02:09:41.898Z,95.23
2023-01-08T02:12:19.784Z,94.68
2023-01-08T02:15:04.155Z,94.36
2023-01-08T02:17:39.385Z,94.83
2023-01-08T02:20:12.461Z,94.37
2023-01-08T02:22:52.437Z,94.46
2023-01-08T02:25:31.534Z,94.70
2023-01-08T02:28:03.824Z,94.64
2023-01-08T02:30:31.816Z,94.02
2023-01-08T02:32:59.409Z,94.81
2023-01-08T02:35:37.713Z,94.29
2023-01-08T02:38:05.838Z,94.67
2023-01-08T02:40:42.898Z,94.90
2023-01-08T02:43:16.889Z,94.06
2023-01-08T02:45:48.183Z,93.59
2023-01-08T02:48:24.004Z,93.86
2023-01-08T02:50:56.866Z,93.69
2023-01-08T02:53:28.417Z,94.74
2023-01-08T02:55:59.700Z,94.35
2023-01-08T02:58:33.010Z,94.79
2023-01-08T03:01:02.704Z,94.77
2023-01-08T03:03:31.982Z,94.49
2023-01-08T03:06:04.072Z,94.94
2023-01-08T03:08:34.015Z,94.65
2023-01-08T03:11:04.750Z,94.72
2023-01-08T03:13:40.869Z,94.23
2023-01-08T03:16:12.785Z,94.44
2023-01-08T03:18:46.429Z,94.46
2023-01-08T03:21:15.449Z,95.16
2023-01-08T03:23:45.127Z,94.85
2023-01-08T03:26:16.366Z,94.57
2023-01-08T03:28:51.753Z,94.56
2023-01-08T03:31:23.905Z,93.95
2023-01-08T03:33:52.064Z,94.19
2023-01-08T03:36:22.946Z,94.39
2023-01-08T03:38:55.336Z,93.80
2023-01-08T03:41:25.778Z,94.35
2023-01-08T03:43:54.995Z,93.64
2023-01-08T03:46:28.833Z,93.94
2023-01-08T03:48:59.132Z,94.08
2023-01-08T03:51:26.924Z,93.67
2023-01-08T03:53:59.621Z,93.33
2023-01-08T03:56:27.160Z,93.51
2023-01-08T03:58:56.084Z,93.80
2023-01-08T04:01:23.760Z,93.54
2023-01-08T04:03:51.398Z,94.18
2023-01-08T04:06:18.923Z,94.42
2023-01-08T04:08:48.363Z,94.35
2023-01-08T04:11:15.975Z,94.76
2023-01-08T04:13:43.602Z,94.40
2023-01-08T04:16:12.600Z,95.24
2023-01-08T04:18:40.222Z,95.04
2023-01-08T04:21:08.125Z,94.70
2023-01-08T04:23:35.702Z,95.90
2023-01-08T04:26:05.527Z,95.38
2023-01-08T04:28:33.151Z,95.19
2023-01-08T04:31:00.774Z,96.84
2023-01-08T04:33:29.686Z,96.96
2023-01-08T04:35:57.207Z,96.87
2023-01-08T04:38:24.761Z,97.42
2023-01-08T04:40:57.725Z,97.01
2023-01-08T04:43:25.355Z,98.24
2023-01-08T04:45:53.004Z,98.66
2023-01-08T04:48:20.590Z,99.46
2023-01-08T04:50:49.530Z,99.69
2023-01-08T04:53:17.047Z,99.55
2023-01-08T04:55:44.651Z,99.48
2023-01-08T04:58:12.294Z,99.82
2023-01-08T05:00:40.447Z,100.00
2023-01-08T05:03:11.189Z,100.00
2023-01-08T05:05:39.139Z,100.00
2023-01-08T05:08:08.074Z,100.00
2023-01-08T05:10:35.635Z,100.00
2023-01-08T05:13:03.246Z,100.00
2023-01-08T05:15:30.949Z,100.00
2023-01-08T05:17:59.800Z,100.00
2023-01-08T05:20:27.611Z,100.00
2023-01-08T05:22:55.274Z,100.00
2023-01-08T05:25:24.204Z,100.00
2023-01-08T05:27:51.916Z,100.00
2023-01-08T05:30:19.529Z,100.00
2023-01-08T05:32:47.032Z,100.00
2023-01-08T05:35:14.585Z,100.00
2023-01-08T05:37:42.126Z,100.00
2023-01-08T05:40:10.644Z,100.00
2023-01-08T05:42:39.508Z,100.00
2023-01-08T05:45:09.042Z,100.00
2023-01-08T05:47:36.832Z,100.00
2023-01-08T05:50:04.649Z,100.00
2023-01-08T05:52:32.262Z,100.00
2023-01-08T05:55:00.408Z,100.00
2023-01-08T05:57:28.149Z,100.00
2023-01-08T05:59:57.115Z,100.00
2023-01-08T06:02:24.860Z,100.00
2023-01-08T06:04:52.424Z,100.00
2023-01-08T06:07:20.048Z,100.00
2023-01-08T06:09:47.711Z,100.00
2023-01-08T06:12:15.253Z,100.00
2023-01-08T06:14:42.931Z,100.00
2023-01-08T06:17:11.842Z,100.00
2023-01-08T06:19:40.138Z,100.00
2023-01-08T06:22:07.738Z,100.00
2023-01-08T06:24:35.383Z,100.00
2023-01-08T06:27:02.950Z,100.00
2023-01-08T06:29:30.568Z,100.00
2023-01-08T06:31:58.121Z,100.00
2023-01-08T06:34:26.992Z,100.00
2023-01-08T06:36:54.607Z,100.00
2023-01-08T06:39:22.209Z,100.00
2023-01-08T06:41:49.829Z,100.00
2023-01-08T06:44:17.444Z,100.00
2023-01-08T06:46:45.055Z,100.00
2023-01-08T06:49:13.740Z,100.00
2023-01-08T06:51:42.636Z,100.00
2023-01-08T06:54:11.583Z,100.00
2023-01-08T06:56:52.898Z,100.00
2023-01-08T06:59:21.774Z,100.00
2023-01-08T07:01:49.878Z,100.00
2023-01-08T07:04:18.200Z,100.00
2023-01-08T07:06:47.427Z,100.00
2023-01-08T07:09:15.873Z,100.00
2023-01-08T07:11:43.785Z,100.00
2023-01-08T07:14:11.476Z,100.00
2023-01-08T07:16:39.143Z,100.00
2023-01-08T07:19:06.717Z,100.00
2023-01-08T07:21:34.268Z,100.00
2023-01-08T07:24:04.024Z,100.00
2023-01-08T07:26:31.614Z,100.00
2023-01-08T07:28:59.206Z,100.00
2023-01-08T07:31:26.991Z,100.00
2023-01-08T07:33:54.607Z,100.00
2023-01-08T07:36:22.964Z,100.00
2023-01-08T07:38:50.779Z,100.00
2023-01-08T07:41:19.699Z,100.00
2023-01-08T07:43:48.669Z,100.00
2023-01-08T07:46:16.356Z,100.00
2023-01-08T07:48:43.961Z,100.00
2023-01-08T07:51:12.018Z,100.00
2023-01-08T07:53:39.584Z,100.00
2023-01-08T07:56:09.871Z,100.00
2023-01-08T07:58:39.256Z,100.00
2023-01-08T08:01:10.642Z,100.00
2023-01-08T08:03:39.030Z,100.00
2023-01-08T08:06:07.340Z,100.00
2023-01-08T08:08:35.132Z,100.00
2023-01-08T08:11:02.990Z,100.00
2023-01-08T08:13:30.605Z,100.00
2023-01-08T08:16:03.867Z,100.00
2023-01-08T08:18:31.853Z,100.00
2023-01-08T08:20:59.394Z,100.00
2023-01-08T08:23:26.984Z,100.00
2023-01-08T08:25:54.577Z,100.00
2023-01-08T08:28:22.319Z,100.00
2023-01-08T08:30:52.656Z,100.00
2023-01-08T08:33:21.617Z,100.00
2023-01-08T08:35:50.876Z,100.00
2023-01-08T08:38:19.033Z,100.00
2023-01-08T08:40:46.608Z,100.00
2023-01-08T08:43:14.211Z,100.00
2023-01-08T08:45:41.983Z,100.00
2023-01-08T08:48:09.720Z,100.00
2023-01-08T08:50:39.073Z,100.00
2023-01-08T08:53:07.629Z,100.00
2023-01-08T08:55:35.717Z,100.00
2023-01-08T08:58:05.361Z,100.00
2023-01-08T09:00:32.987Z,100.00
2023-01-08T09:03:00.710Z,100.00
2023-01-08T09:05:28.735Z,100.00
2023-01-08T09:07:57.627Z,100.00
2023-01-08T09:10:25.233Z,100.00
2023-01-08T09:12:54.103Z,100.00
2023-01-08T09:15:21.731Z,100.00
2023-01-08T09:17:53.937Z,100.00
2023-01-08T09:20:21.617Z,100.00
2023-01-08T09:22:49.329Z,100.00
2023-01-08T09:25:18.687Z,100.00
2023-01-08T09:27:46.433Z,100.00
2023-01-08T09:30:14.252Z,100.00
2023-01-08T09:32:41.849Z,100.00
2023-01-08T09:35:10.326Z,100.00
2023-01-08T09:37:37.909Z,100.00
2023-01-08T09:40:06.557Z,100.00
2023-01-08T09:42:35.722Z,100.00
2023-01-08T09:45:04.684Z,100.00
2023-01-08T09:47:37.540Z,100.00
2023-01-08T09:50:08.793Z,100.00
2023-01-08T09:52:36.710Z,100.00
2023-01-08T09:55:05.395Z,100.00
2023-01-08T09:57:33.000Z,100.00
2023-01-08T10:00:05.272Z,100.00
2023-01-08T10:02:40.830Z,100.00
2023-01-08T10:05:14.165Z,100.00
2023-01-08T10:07:41.731Z,100.00
2023-01-08T10:10:18.419Z,100.00
2023-01-08T10:12:47.231Z,100.00
2023-01-08T10:15:18.870Z,100.00
2023-01-08T10:17:50.051Z,99.37
2023-01-08T10:20:20.299Z,99.31
2023-01-08T10:22:49.263Z,96.60
2023-01-08T10:25:19.672Z,95.90
2023-01-08T10:27:49.235Z,94.73
2023-01-08T10:30:20.529Z,95.36
2023-01-08T10:32:49.558Z,94.51
2023-01-08T10:35:20.455Z,93.37
2023-01-08T10:37:50.477Z,93.14
2023-01-08T10:40:29.404Z,92.45
2023-01-08T10:42:59.491Z,92.49
2023-01-08T10:45:29.888Z,93.15
2023-01-08T10:48:00.436Z,91.57
2023-01-08T10:50:30.646Z,91.58
2023-01-08T10:53:00.696Z,90.33
2023-01-08T10:55:31.432Z,91.12
2023-01-08T10:58:01.137Z,91.16
2023-01-08T11:00:32.476Z,90.54
2023-01-08T11:03:02.004Z,91.12
2023-01-08T11:05:34.472Z,90.55
2023-01-08T11:08:05.797Z,89.86
2023-01-08T11:10:35.006Z,88.37
2023-01-08T11:13:05.147Z,88.11
2023-01-08T11:15:38.667Z,87.84
2023-01-08T11:18:17.546Z,87.18
2023-01-08T11:20:47.499Z,86.72
2023-01-08T11:23:21.404Z,85.95
2023-01-08T11:25:56.102Z,85.39
2023-01-08T11:28:31.754Z,86.24
2023-01-08T11:31:10.951Z,86.02
2023-01-08T11:33:40.656Z,84.82
2023-01-08T11:36:16.903Z,83.76
2023-01-08T11:38:44.653Z,84.28
2023-01-08T11:41:26.639Z,82.75
2023-01-08T11:44:10.447Z,82.54
2023-01-08T11:46:47.300Z,81.16
2023-01-08T11:49:31.110Z,79.87
2023-01-08T11:52:11.077Z,80.38
2023-01-08T11:54:54.396Z,78.15
2023-01-08T11:57:34.218Z,79.77
2023-01-08T12:00:16.677Z,74.20
2023-01-08T12:02:55.729Z,77.07
2023-01-08T12:05:27.815Z,73.75
2023-01-08T12:08:01.845Z,74.72
2023-01-08T12:10:39.592Z,74.06
2023-01-08T12:13:20.716Z,75.01
2023-01-08T12:16:02.865Z,74.34
2023-01-08T12:19:04.710Z,74.98
2023-01-08T12:21:33.531Z,74.20
2023-01-08T12:24:19.805Z,75.08
2023-01-08T12:26:52.308Z,76.54
2023-01-08T12:29:48.929Z,76.75
2023-01-08T12:32:27.425Z,77.63
2023-01-08T12:35:04.659Z,77.38
2023-01-08T12:37:40.165Z,77.91
2023-01-08T12:40:16.850Z,78.60
2023-01-08T12:42:50.266Z,79.57
2023-01-08T12:45:26.845Z,79.63
2023-01-08T12:47:57.386Z,79.67
2023-01-08T12:50:37.690Z,79.11
2023-01-08T12:53:13.941Z,79.35
2023-01-08T12:55:48.581Z,78.63
2023-01-08T12:58:26.780Z,78.26
2023-01-08T13:01:01.867Z,78.57
2023-01-08T13:03:31.317Z,77.37
2023-01-08T13:06:12.830Z,77.41
2023-01-08T13:08:42.269Z,78.61
2023-01-08T13:11:10.025Z,78.21
2023-01-08T13:13:41.785Z,78.27
2023-01-08T13:16:19.571Z,78.79
2023-01-08T13:18:57.897Z,79.70
2023-01-08T13:21:32.300Z,79.05
2023-01-08T13:24:08.771Z,78.27
2023-01-08T13:26:37.643Z,79.46
2023-01-08T13:29:24.361Z,82.60
2023-01-08T13:31:52.496Z,80.46
2023-01-08T13:34:23.200Z,79.91
2023-01-08T13:37:00.381Z,76.18
2023-01-08T13:39:34.866Z,75.55
2023-01-08T13:42:23.608Z,75.75
2023-01-08T13:44:53.045Z,75.51
2023-01-08T13:47:28.582Z,75.31
2023-01-08T13:49:57.199Z,75.19
2023-01-08T13:52:45.640Z,76.06
2023-01-08T13:55:17.163Z,76.65
2023-01-08T13:57:49.420Z,77.63
2023-01-08T14:00:24.714Z,77.12
2023-01-08T14:02:54.830Z,78.11
2023-01-08T14:05:26.767Z,79.54
2023-01-08T14:07:56.136Z,80.09
2023-01-08T14:10:25.090Z,80.37
2023-01-08T14:12:53.177Z,81.32
2023-01-08T14:15:27.240Z,82.30
2023-01-08T14:17:56.197Z,83.37
2023-01-08T14:20:31.203Z,83.10
2023-01-08T14:23:00.811Z,83.05
2023-01-08T14:25:29.093Z,79.64
2023-01-08T14:27:59.105Z,80.90
2023-01-08T14:30:27.387Z,82.31
2023-01-08T14:32:56.706Z,83.30
2023-01-08T14:35:31.287Z,83.28
2023-01-08T14:38:01.122Z,83.48
2023-01-08T14:40:31.504Z,84.08
2023-01-08T14:43:03.888Z,84.66
2023-01-08T14:45:34.027Z,83.69
2023-01-08T14:48:11.921Z,81.93
2023-01-08T14:50:42.440Z,81.85
2023-01-08T14:53:22.038Z,81.20
2023-01-08T14:55:52.254Z,80.04
2023-01-08T14:58:24.427Z,79.23
2023-01-08T15:00:55.562Z,78.37
2023-01-08T15:03:30.937Z,79.22
2023-01-08T15:05:58.515Z,79.44
2023-01-08T15:08:32.497Z,79.92
2023-01-08T15:11:01.337Z,81.31
2023-01-08T15:13:33.309Z,82.84
2023-01-08T15:16:06.578Z,84.17
2023-01-08T15:18:41.639Z,82.86
2023-01-08T15:21:09.523Z,83.66
2023-01-08T15:23:42.902Z,85.14
2023-01-08T15:26:11.446Z,86.21
2023-01-08T15:28:39.711Z,86.63
2023-01-08T15:31:07.711Z,87.83
2023-01-08T15:33:35.289Z,88.10
2023-01-08T15:36:02.839Z,88.33
2023-01-08T15:38:30.356Z,89.53
2023-01-08T15:40:59.302Z,90.40
2023-01-08T15:43:25.898Z,90.95
2023-01-08T15:45:53.449Z,90.80
2023-01-08T15:48:20.971Z,91.52
2023-01-08T15:50:48.806Z,92.12
2023-01-08T15:53:19.059Z,92.67
2023-01-08T15:55:47.150Z,92.01
2023-01-08T15:58:16.967Z,92.07
2023-01-08T16:00:46.264Z,92.47
2023-01-08T16:03:15.286Z,91.78
2023-01-08T16:05:43.131Z,91.31
2023-01-08T16:08:12.097Z,92.07
2023-01-08T16:10:39.628Z,92.38
2023-01-08T16:13:07.204Z,91.88
2023-01-08T16:15:36.070Z,92.63
2023-01-08T16:18:03.822Z,93.89
2023-01-08T16:20:31.427Z,93.44
2023-01-08T16:22:59.053Z,94.04
2023-01-08T16:25:26.726Z,94.48
2023-01-08T16:27:54.889Z,93.46
2023-01-08T16:30:23.003Z,94.16
2023-01-08T16:32:53.915Z,93.51
2023-01-08T16:35:22.531Z,94.55
2023-01-08T16:37:50.057Z,93.59
2023-01-08T16:40:17.877Z,93.43
2023-01-08T16:42:45.382Z,93.48
2023-01-08T16:45:12.950Z,94.07
2023-01-08T16:47:40.620Z,94.24
2023-01-08T16:50:12.261Z,96.03
2023-01-08T16:52:39.907Z,96.32
2023-01-08T16:55:08.287Z,96.91
2023-01-08T16:57:35.847Z,97.54
2023-01-08T17:00:03.604Z,97.17
2023-01-08T17:02:31.168Z,95.44
2023-01-08T17:04:58.715Z,94.39
2023-01-08T17:07:27.636Z,93.27
2023-01-08T17:09:55.232Z,92.18
2023-01-08T17:12:23.175Z,89.93
2023-01-08T17:14:51.223Z,89.58
2023-01-08T17:17:18.957Z,88.46
2023-01-08T17:19:46.551Z,88.80
2023-01-08T17:22:14.171Z,88.04
2023-01-08T17:24:43.083Z,87.26
2023-01-08T17:27:11.233Z,87.57
2023-01-08T17:29:38.792Z,86.99
2023-01-08T17:32:06.894Z,87.42
2023-01-08T17:34:34.469Z,87.47
2023-01-08T17:37:02.071Z,87.26
2023-01-08T17:39:29.717Z,87.65
2023-01-08T17:42:16.445Z,87.65
2023-01-08T17:44:44.319Z,87.51
2023-01-08T17:47:12.144Z,87.70
2023-01-08T17:49:40.043Z,88.07
2023-01-08T17:52:09.592Z,89.12
2023-01-08T17:54:37.243Z,89.92
2023-01-08T17:57:06.231Z,89.44
2023-01-08T17:59:33.830Z,89.86
2023-01-08T18:02:01.553Z,89.31
2023-01-08T18:04:29.188Z,89.74
2023-01-08T18:06:56.772Z,90.05
2023-01-08T18:09:24.505Z,89.84
2023-01-08T18:11:52.032Z,89.78
2023-01-08T18:14:20.953Z,90.15
2023-01-08T18:16:49.533Z,89.97
2023-01-08T18:19:17.922Z,90.37
2023-01-08T18:21:45.529Z,90.43
2023-01-08T18:24:14.477Z,90.12
2023-01-08T18:26:42.327Z,90.46
2023-01-08T18:29:10.226Z,90.00
2023-01-08T18:31:39.273Z,90.22
2023-01-08T18:34:07.264Z,90.62
2023-01-08T18:36:34.803Z,90.13
2023-01-08T18:39:02.370Z,90.74
2023-01-08T18:41:47.695Z,91.27
2023-01-08T18:44:15.827Z,91.96
2023-01-08T18:46:52.041Z,91.58
2023-01-08T18:49:20.168Z,92.24
2023-01-08T18:51:47.833Z,92.51
2023-01-08T18:54:15.565Z,92.30
2023-01-08T18:56:43.241Z,92.38
2023-01-08T18:59:11.696Z,92.57
2023-01-08T19:01:39.573Z,93.40
2023-01-08T19:04:08.616Z,93.22
2023-01-08T19:06:36.150Z,93.33
2023-01-08T19:09:04.146Z,92.98
2023-01-08T19:11:31.790Z,93.14
2023-01-08T19:13:59.471Z,92.77
2023-01-08T19:16:27.108Z,92.30
2023-01-08T19:18:55.125Z,92.76
2023-01-08T19:21:24.076Z,93.48
2023-01-08T19:23:51.910Z,93.40
2023-01-08T19:26:19.638Z,93.93
2023-01-08T19:28:47.559Z,93.97
2023-01-08T19:31:18.010Z,94.25
2023-01-08T19:33:47.068Z,94.00
2023-01-08T19:36:16.382Z,94.22
2023-01-08T19:38:45.694Z,93.59
2023-01-08T19:41:31.959Z,93.47
2023-01-08T19:44:00.217Z,93.37
2023-01-08T19:46:28.426Z,93.28
2023-01-08T19:48:57.993Z,93.14
2023-01-08T19:51:26.166Z,93.30
2023-01-08T19:53:57.138Z,93.71
2023-01-08T19:56:24.800Z,93.67
2023-01-08T19:58:52.430Z,93.94
2023-01-08T20:01:23.042Z,93.65
2023-01-08T20:03:51.247Z,94.15
2023-01-08T20:06:21.710Z,93.54
2023-01-08T20:08:49.523Z,93.94
2023-01-08T20:11:19.185Z,93.83
2023-01-08T20:13:46.825Z,93.54
2023-01-08T20:16:17.006Z,93.81
2023-01-08T20:18:45.898Z,93.86
2023-01-08T20:21:16.279Z,93.68
2023-01-08T20:23:44.677Z,93.83
2023-01-08T20:26:15.112Z,94.54
2023-01-08T20:28:46.072Z,94.12
2023-01-08T20:31:16.672Z,94.58
2023-01-08T20:33:45.205Z,95.04
2023-01-08T20:36:15.611Z,95.60
2023-01-08T20:38:44.418Z,96.04
2023-01-08T20:41:12.656Z,96.13
2023-01-08T20:43:41.076Z,96.91
2023-01-08T20:46:13.610Z,97.13
2023-01-08T20:48:46.823Z,97.62
2023-01-08T20:51:15.311Z,97.66
2023-01-08T20:53:43.018Z,98.52
2023-01-08T20:56:12.743Z,98.57
2023-01-08T20:58:42.384Z,99.46
2023-01-08T21:01:13.544Z,99.92
2023-01-08T21:03:42.277Z,99.90
2023-01-08T21:06:12.327Z,100.00
2023-01-08T21:08:40.389Z,100.00
2023-01-08T21:11:09.602Z,100.00
2023-01-08T21:13:38.556Z,100.00
2023-01-08T21:16:09.508Z,100.00
2023-01-08T21:18:40.353Z,100.00
2023-01-08T21:21:08.306Z,100.00
2023-01-08T21:23:35.828Z,100.00
2023-01-08T21:26:05.749Z,100.00
2023-01-08T21:28:34.109Z,100.00
2023-01-08T21:31:05.901Z,100.00
2023-01-08T21:33:33.714Z,100.00
2023-01-08T21:36:05.394Z,100.00
2023-01-08T21:38:33.326Z,100.00
2023-01-08T21:41:01.440Z,100.00
2023-01-08T21:43:46.910Z,100.00
2023-01-08T21:46:16.167Z,99.92
2023-01-08T21:48:44.502Z,99.90
2023-01-08T21:51:27.373Z,99.08
2023-01-08T21:53:55.021Z,99.21
2023-01-08T21:56:23.116Z,99.14
2023-01-08T21:58:50.730Z,99.19
2023-01-08T22:01:18.602Z,99.27
2023-01-08T22:03:46.272Z,98.55
2023-01-08T22:06:15.310Z,98.80
2023-01-08T22:08:42.986Z,98.93
2023-01-08T22:11:10.542Z,98.97
2023-01-08T22:13:39.023Z,99.18
2023-01-08T22:16:09.625Z,99.09
2023-01-08T22:18:38.373Z,99.33
2023-01-08T22:21:08.186Z,99.80
2023-01-08T22:23:37.829Z,99.99
2023-01-08T22:26:06.182Z,99.67
2023-01-08T22:28:33.971Z,99.82
2023-01-08T22:31:05.956Z,100.00
2023-01-08T22:33:33.613Z,100.00
2023-01-08T22:36:03.043Z,99.88
2023-01-08T22:38:30.600Z,100.00
2023-01-08T22:40:59.513Z,100.00
2023-01-08T22:43:27.394Z,100.00
2023-01-08T22:45:56.170Z,100.00
2023-01-08T22:48:24.184Z,100.00
2023-01-08T22:50:52.072Z,100.00
2023-01-08T22:53:19.874Z,100.00
2023-01-08T22:55:48.607Z,100.00
2023-01-08T22:58:18.461Z,100.00
2023-01-08T23:00:46.120Z,100.00
2023-01-08T23:03:14.081Z,100.00
2023-01-08T23:05:41.830Z,100.00
2023-01-08T23:08:09.809Z,100.00
2023-01-08T23:10:37.750Z,100.00
2023-01-08T23:13:05.334Z,100.00
2023-01-08T23:15:34.406Z,100.00
2023-01-08T23:18:01.950Z,100.00
2023-01-08T23:20:29.733Z,100.00
2023-01-08T23:22:57.344Z,100.00
2023-01-08T23:25:24.845Z,100.00
2023-01-08T23:27:52.394Z,100.00
2023-01-08T23:30:19.968Z,100.00
2023-01-08T23:32:48.904Z,100.00
2023-01-08T23:35:16.623Z,100.00
2023-01-08T23:37:44.148Z,100.00
2023-01-08T23:40:12.912Z,100.00
2023-01-08T23:42:40.543Z,100.00
2023-01-08T23:45:11.193Z,100.00
2023-01-08T23:47:38.908Z,100.00
2023-01-08T23:50:09.595Z,100.00
2023-01-08T23:52:37.144Z,100.00
2023-01-08T23:55:05.283Z,100.00
2023-01-08T23:57:32.890Z,100.00
